Sao Joao de Meriti, Brazil
Current Conditions -  °F | °C
As of 6:00 AM on Sunday 26 Oct 2014 (Local Time) from SBAF Reporting Station
Scattered Clouds Scattered Clouds  
Wind Chill: 66°   Ceiling: Unl
Heat Index: 66°   Visibility: 5mi
Dew Point: 64°   Wind: 1mph
Humidity: 94%   Direction: 270°W
Pressure: 29.91"   Gusts: NA
Location:  22.8°S, 43.35°W
Report Text: SBAF 260800Z 27001KT 8000 FEW020 SCT090 19/18 Q1013
Loading
Personal Weather Stations






























Interactive Weather Map
Tropical Storm Tracking
New forecast layout! Learn more

10-Day Weather Forecast

Advertisements
Track Severe Weather on mobile